createdAt,value
2022-10-05T00:01:00.349Z,128.55
2022-10-05T00:03:39.007Z,130.65
2022-10-05T00:06:12.572Z,147.27
2022-10-05T00:08:40.150Z,502.08
2022-10-05T00:11:11.393Z,187.00
2022-10-05T00:13:40.995Z,146.50
2022-10-05T00:16:11.465Z,151.52
2022-10-05T00:18:41.587Z,155.25
2022-10-05T00:21:21.733Z,162.00
2022-10-05T00:23:55.430Z,144.63
2022-10-05T00:26:33.023Z,143.55
2022-10-05T00:29:02.774Z,136.50
2022-10-05T00:31:35.632Z,150.48
2022-10-05T00:34:03.251Z,210.23
2022-10-05T00:36:30.526Z,134.65
2022-10-05T00:39:01.855Z,128.52
2022-10-05T00:42:00.058Z,113.10
2022-10-05T00:44:43.284Z,136.73
2022-10-05T00:47:35.973Z,112.10
2022-10-05T00:50:25.618Z,123.53
2022-10-05T00:53:16.809Z,128.35
2022-10-05T00:55:50.150Z,113.18
2022-10-05T00:59:06.002Z,116.72
2022-10-05T01:01:41.896Z,136.30
2022-10-05T01:04:39.153Z,117.22
2022-10-05T01:10:05.294Z,104.15
2022-10-05T01:13:00.983Z,114.65
2022-10-05T01:16:04.347Z,133.35
2022-10-05T01:18:54.190Z,135.50
2022-10-05T01:21:24.874Z,146.48
2022-10-05T01:24:21.467Z,132.25
2022-10-05T01:27:09.923Z,170.43
2022-10-05T01:29:49.750Z,322.60
2022-10-05T01:32:46.067Z,366.95
2022-10-05T01:35:36.647Z,321.67
2022-10-05T01:38:24.378Z,370.38
2022-10-05T01:41:03.432Z,421.35
2022-10-05T01:43:44.400Z,393.60
2022-10-05T01:46:27.009Z,500.30
2022-10-05T01:49:28.752Z,521.95
2022-10-05T01:52:19.268Z,444.20
2022-10-05T01:54:53.150Z,364.73
2022-10-05T01:57:48.088Z,337.90
2022-10-05T02:00:19.990Z,342.08
2022-10-05T02:03:11.742Z,292.90
2022-10-05T02:06:04.707Z,412.75
2022-10-05T02:08:43.463Z,469.23
2022-10-05T02:11:17.793Z,375.30
2022-10-05T02:13:51.572Z,290.80
2022-10-05T02:16:21.879Z,267.67
2022-10-05T02:19:00.223Z,411.67
2022-10-05T02:21:30.404Z,323.67
2022-10-05T02:24:07.123Z,412.77
2022-10-05T02:26:36.873Z,402.77
2022-10-05T02:29:09.713Z,369.58
2022-10-05T02:31:49.022Z,229.23
2022-10-05T02:34:28.889Z,298.50
2022-10-05T02:37:32.046Z,319.77
2022-10-05T02:40:31.647Z,206.57
2022-10-05T02:43:08.702Z,422.60
2022-10-05T02:45:42.901Z,290.85
2022-10-05T02:48:53.147Z,263.08
2022-10-05T02:51:25.932Z,333.83
2022-10-05T02:54:23.724Z,340.77
2022-10-05T02:57:12.293Z,490.08
2022-10-05T02:59:50.184Z,522.25
2022-10-05T03:02:44.462Z,575.72
2022-10-05T03:05:22.376Z,399.55
2022-10-05T03:08:02.397Z,431.17
2022-10-05T03:10:55.107Z,314.55
2022-10-05T03:13:38.192Z,478.20
2022-10-05T03:16:14.659Z,297.23
2022-10-05T03:19:26.411Z,290.27
2022-10-05T03:22:15.691Z,318.27
2022-10-05T03:24:56.627Z,441.50
2022-10-05T03:27:44.928Z,554.78
2022-10-05T03:30:24.012Z,332.85
2022-10-05T03:33:03.807Z,332.27
2022-10-05T03:35:58.567Z,260.70
2022-10-05T03:38:26.013Z,294.23
2022-10-05T03:41:18.089Z,413.67
2022-10-05T03:43:51.194Z,409.15
2022-10-05T03:46:24.531Z,317.92
2022-10-05T03:49:08.958Z,431.50
2022-10-05T03:51:42.118Z,470.85
2022-10-05T03:54:20.832Z,556.13
2022-10-05T03:56:58.207Z,499.80
2022-10-05T03:59:32.850Z,474.30
2022-10-05T04:02:07.603Z,613.17
2022-10-05T04:05:05.416Z,416.38
2022-10-05T04:07:38.676Z,415.63
2022-10-05T04:10:17.945Z,523.90
2022-10-05T04:12:52.614Z,367.77
2022-10-05T04:15:42.733Z,367.42
2022-10-05T04:18:28.767Z,649.53
2022-10-05T04:21:07.058Z,402.92
2022-10-05T04:23:48.209Z,439.30
2022-10-05T04:26:44.012Z,452.15
2022-10-05T04:29:36.022Z,520.80
2022-10-05T04:32:20.609Z,545.58
2022-10-05T04:34:57.033Z,433.23
2022-10-05T04:37:54.008Z,410.13
2022-10-05T04:40:28.243Z,451.75
2022-10-05T04:43:10.771Z,365.40
2022-10-05T04:46:01.990Z,509.52
2022-10-05T04:48:44.716Z,454.48
2022-10-05T04:51:23.710Z,486.73
2022-10-05T04:54:05.518Z,470.17
2022-10-05T04:56:59.127Z,543.58
2022-10-05T04:59:39.873Z,458.17
2022-10-05T05:02:16.677Z,299.35
2022-10-05T05:04:51.986Z,372.10
2022-10-05T05:07:31.938Z,335.65
2022-10-05T05:10:33.543Z,225.02
2022-10-05T05:13:15.008Z,350.15
2022-10-05T05:16:12.997Z,229.02
2022-10-05T05:19:05.452Z,277.35
2022-10-05T05:22:00.392Z,246.20
2022-10-05T05:24:38.788Z,320.40
2022-10-05T05:27:18.813Z,255.75
2022-10-05T05:30:06.380Z,262.63
2022-10-05T05:32:52.653Z,274.67
2022-10-05T05:35:53.892Z,362.67
2022-10-05T05:38:33.598Z,279.17
2022-10-05T05:41:13.228Z,228.95
2022-10-05T05:43:56.493Z,324.33
2022-10-05T05:47:01.780Z,264.73
2022-10-05T05:49:39.023Z,325.30
2022-10-05T05:52:16.278Z,295.05
2022-10-05T05:54:49.682Z,287.63
2022-10-05T05:57:30.035Z,245.52
2022-10-05T06:00:18.778Z,258.73
2022-10-05T06:03:38.876Z,203.70
2022-10-05T06:06:38.382Z,168.20
2022-10-05T06:09:47.393Z,199.63
2022-10-05T06:12:46.997Z,225.98
2022-10-05T06:15:25.573Z,214.05
2022-10-05T06:17:58.963Z,241.00
2022-10-05T06:21:00.297Z,365.42
2022-10-05T06:23:50.941Z,349.98
2022-10-05T06:26:55.729Z,243.23
2022-10-05T06:29:31.059Z,284.95
2022-10-05T06:31:59.159Z,257.05
2022-10-05T06:34:54.713Z,324.98
2022-10-05T06:37:27.712Z,217.48
2022-10-05T06:40:05.112Z,215.05
2022-10-05T06:42:51.469Z,262.50
2022-10-05T06:46:07.383Z,186.77
2022-10-05T06:49:20.223Z,190.20
2022-10-05T06:52:32.528Z,220.82
2022-10-05T06:55:22.240Z,178.18
2022-10-05T06:58:21.202Z,228.60
2022-10-05T07:00:54.423Z,230.60
2022-10-05T07:03:50.023Z,214.73
2022-10-05T07:06:34.352Z,212.77
2022-10-05T07:09:25.962Z,242.18
2022-10-05T07:12:09.823Z,229.18
2022-10-05T07:14:55.763Z,249.63
2022-10-05T07:17:27.684Z,240.80
2022-10-05T07:20:20.240Z,280.95
2022-10-05T07:23:25.047Z,248.13
2022-10-05T07:26:26.950Z,243.52
2022-10-05T07:29:06.793Z,220.65
2022-10-05T07:31:44.848Z,211.55
2022-10-05T07:34:21.117Z,202.32
2022-10-05T07:37:20.312Z,174.20
2022-10-05T07:40:01.618Z,155.82
2022-10-05T07:42:48.941Z,139.25
2022-10-05T07:45:34.208Z,128.98
2022-10-05T07:48:14.094Z,118.75
2022-10-05T07:50:51.808Z,96.22
2022-10-05T07:53:25.860Z,82.25
2022-10-05T07:56:03.102Z,64.18
2022-10-05T07:58:51.924Z,75.47
2022-10-05T08:01:34.367Z,73.80
2022-10-05T08:04:14.367Z,52.72
2022-10-05T08:06:53.433Z,43.33
2022-10-05T08:09:48.515Z,35.85
2022-10-05T08:12:31.820Z,30.25
2022-10-05T08:15:17.962Z,29.23
2022-10-05T08:17:54.184Z,31.27
2022-10-05T08:20:21.580Z,31.83
2022-10-05T08:22:57.572Z,35.17
2022-10-05T08:25:29.452Z,32.50
2022-10-05T08:28:05.275Z,105.78
2022-10-05T08:30:40.569Z,40.63
2022-10-05T08:33:16.082Z,35.30
2022-10-05T08:38:23.573Z,26.48
2022-10-05T08:41:12.981Z,26.88
2022-10-05T08:44:02.518Z,26.70
2022-10-05T08:46:32.665Z,28.25
2022-10-05T08:49:05.925Z,26.42
2022-10-05T08:52:01.565Z,24.58
2022-10-05T08:54:44.765Z,28.67
2022-10-05T08:57:47.043Z,22.75
2022-10-05T09:00:19.305Z,32.15
2022-10-05T09:03:14.493Z,39.15
2022-10-05T09:06:14.510Z,24.17
2022-10-05T09:08:56.732Z,26.13
2022-10-05T09:11:42.788Z,22.50
2022-10-05T09:14:52.665Z,28.17
2022-10-05T09:18:09.447Z,12.32
2022-10-05T09:21:02.822Z,12.05
2022-10-05T09:23:44.757Z,12.90
2022-10-05T09:26:45.605Z,13.10
2022-10-05T09:29:31.443Z,16.25
2022-10-05T09:35:16.093Z,14.25
2022-10-05T09:38:05.251Z,12.13
2022-10-05T09:40:41.701Z,11.40
2022-10-05T09:43:32.263Z,13.25
2022-10-05T09:46:42.311Z,10.35
2022-10-05T09:49:50.163Z,14.15
2022-10-05T09:52:53.667Z,11.73
2022-10-05T09:55:25.733Z,9.27
2022-10-05T09:58:30.623Z,6.50
2022-10-05T10:01:32.228Z,10.45
2022-10-05T10:04:08.210Z,8.77
2022-10-05T10:07:05.223Z,7.68
2022-10-05T10:09:56.212Z,10.27
2022-10-05T10:12:42.100Z,9.27
2022-10-05T10:15:35.777Z,9.38
2022-10-05T10:18:19.255Z,7.50
2022-10-05T10:21:05.467Z,12.90
2022-10-05T10:23:45.614Z,10.98
2022-10-05T10:26:37.630Z,11.43
2022-10-05T10:32:05.098Z,7.70
2022-10-05T10:34:57.552Z,9.25
2022-10-05T10:37:36.937Z,15.85
2022-10-05T10:40:28.728Z,11.70
2022-10-05T10:42:56.549Z,11.48
2022-10-05T10:45:56.419Z,14.55
2022-10-05T10:48:32.189Z,13.32
2022-10-05T10:51:12.078Z,11.70
2022-10-05T10:53:48.668Z,12.57
2022-10-05T10:56:27.131Z,9.50
2022-10-05T10:58:57.189Z,13.95
2022-10-05T11:01:46.494Z,9.13
2022-10-05T11:04:50.631Z,10.02
2022-10-05T11:08:02.130Z,10.55
2022-10-05T11:10:56.513Z,9.63
2022-10-05T11:13:47.972Z,8.75
2022-10-05T11:16:31.350Z,7.57
2022-10-05T11:19:35.109Z,12.63
2022-10-05T11:22:25.196Z,8.77
2022-10-05T11:25:21.663Z,5.43
2022-10-05T11:28:07.398Z,11.27
2022-10-05T11:30:55.066Z,10.45
2022-10-05T11:34:03.632Z,11.73
2022-10-05T11:36:42.940Z,10.77
2022-10-05T11:39:22.340Z,7.93
2022-10-05T11:42:30.001Z,12.93
2022-10-05T11:45:24.501Z,12.77
2022-10-05T11:48:10.461Z,6.88
2022-10-05T11:50:47.662Z,12.02
2022-10-05T11:53:36.451Z,9.40
2022-10-05T11:56:17.102Z,10.88
2022-10-05T11:58:51.008Z,9.38
2022-10-05T12:01:27.520Z,5.13
2022-10-05T12:04:18.320Z,3.30
2022-10-05T12:07:08.290Z,6.07
2022-10-05T12:10:11.288Z,4.13
2022-10-05T12:12:50.110Z,10.68
2022-10-05T12:15:34.950Z,6.05
2022-10-05T12:18:13.920Z,7.05
2022-10-05T12:20:49.989Z,7.60
2022-10-05T12:23:49.909Z,5.82
2022-10-05T12:26:36.808Z,6.03
2022-10-05T12:29:23.945Z,9.95
2022-10-05T12:32:18.662Z,4.80
2022-10-05T12:35:01.465Z,6.93
2022-10-05T12:37:48.981Z,8.82
2022-10-05T12:40:27.644Z,11.10
2022-10-05T12:43:04.869Z,5.15
2022-10-05T12:46:04.363Z,11.50
2022-10-05T12:48:56.275Z,5.30
2022-10-05T12:51:38.500Z,5.20
2022-10-05T12:54:23.697Z,4.15
2022-10-05T12:56:59.342Z,8.98
2022-10-05T13:00:10.123Z,6.18
2022-10-05T13:02:44.333Z,9.20
2022-10-05T13:05:11.800Z,11.50
2022-10-05T13:08:05.740Z,7.57
2022-10-05T13:10:42.230Z,3.65
2022-10-05T13:13:17.732Z,8.13
2022-10-05T13:15:53.816Z,9.02
2022-10-05T13:18:33.089Z,6.00
2022-10-05T13:21:12.350Z,6.28
2022-10-05T13:24:07.958Z,5.13
2022-10-05T13:26:47.688Z,7.30
2022-10-05T13:29:37.564Z,10.98
2022-10-05T13:32:25.872Z,7.38
2022-10-05T13:35:30.829Z,5.65
2022-10-05T13:38:13.813Z,6.35
2022-10-05T13:41:16.443Z,3.40
2022-10-05T13:44:01.931Z,8.50
2022-10-05T13:46:58.421Z,6.40
2022-10-05T13:49:41.214Z,7.40
2022-10-05T13:52:09.034Z,13.10
2022-10-05T13:54:48.332Z,11.65
2022-10-05T13:57:45.530Z,19.85
2022-10-05T14:00:22.702Z,11.48
2022-10-05T14:02:56.977Z,12.50
2022-10-05T14:05:29.744Z,11.82
2022-10-05T14:08:16.094Z,5.05
2022-10-05T14:10:47.076Z,6.60
2022-10-05T14:13:22.487Z,15.70
2022-10-05T14:16:04.959Z,4.43
2022-10-05T14:18:36.891Z,5.70
2022-10-05T14:21:13.895Z,4.95
2022-10-05T14:23:41.803Z,7.00
2022-10-05T14:26:32.735Z,5.28
2022-10-05T14:29:16.920Z,6.60
2022-10-05T14:32:00.301Z,7.53
2022-10-05T14:34:50.420Z,5.05
2022-10-05T14:37:51.241Z,8.50
2022-10-05T14:40:30.388Z,11.55
2022-10-05T14:43:01.834Z,15.45
2022-10-05T14:45:30.323Z,8.68
2022-10-05T14:48:00.521Z,7.97
2022-10-05T14:50:31.027Z,6.43
2022-10-05T14:53:17.401Z,13.93
2022-10-05T14:56:17.430Z,16.33
2022-10-05T14:59:04.623Z,8.85
2022-10-05T15:01:36.816Z,9.18
2022-10-05T15:04:34.157Z,11.75
2022-10-05T15:07:20.909Z,33.80
2022-10-05T15:10:16.130Z,11.43
2022-10-05T15:12:48.457Z,10.90
2022-10-05T15:15:38.559Z,12.65
2022-10-05T15:18:24.687Z,19.80
2022-10-05T15:21:11.967Z,23.92
2022-10-05T15:23:49.889Z,9.80
2022-10-05T15:26:27.054Z,19.02
2022-10-05T15:29:07.283Z,23.27
2022-10-05T15:31:55.839Z,15.13
2022-10-05T15:34:41.220Z,15.00
2022-10-05T15:37:19.987Z,7.68
2022-10-05T15:40:01.059Z,9.48
2022-10-05T15:42:37.171Z,10.15
2022-10-05T15:45:23.882Z,11.73
2022-10-05T15:48:07.744Z,14.38
2022-10-05T15:50:53.532Z,16.35
2022-10-05T15:53:42.409Z,9.45
2022-10-05T15:56:23.008Z,11.90
2022-10-05T15:58:53.443Z,17.95
2022-10-05T16:01:26.667Z,11.25
2022-10-05T16:04:15.374Z,14.25
2022-10-05T16:07:20.347Z,16.30
2022-10-05T16:10:02.547Z,39.88
2022-10-05T16:12:48.680Z,44.10
2022-10-05T16:15:26.459Z,40.08
2022-10-05T16:18:24.268Z,45.00
2022-10-05T16:21:01.392Z,39.35
2022-10-05T16:23:35.493Z,39.40
2022-10-05T16:26:24.563Z,29.65
2022-10-05T16:28:55.371Z,21.42
2022-10-05T16:31:31.290Z,29.42
2022-10-05T16:34:17.362Z,26.45
2022-10-05T16:37:19.999Z,34.30
2022-10-05T16:40:00.492Z,34.50
2022-10-05T16:42:35.043Z,38.55
2022-10-05T16:45:44.674Z,36.78
2022-10-05T16:48:26.164Z,46.47
2022-10-05T16:51:13.183Z,48.20
2022-10-05T16:53:51.427Z,66.15
2022-10-05T16:56:25.381Z,60.35
2022-10-05T16:58:59.399Z,82.88
2022-10-05T17:01:48.737Z,87.32
2022-10-05T17:04:23.871Z,75.75
2022-10-05T17:06:51.390Z,80.63
2022-10-05T17:09:40.499Z,78.07
2022-10-05T17:12:23.321Z,213.18
2022-10-05T17:14:54.077Z,190.02
2022-10-05T17:17:41.525Z,170.75
2022-10-05T17:20:37.859Z,127.05
2022-10-05T17:23:51.522Z,95.82
2022-10-05T17:26:40.660Z,112.20
2022-10-05T17:29:16.525Z,131.68
2022-10-05T17:32:10.989Z,129.55
2022-10-05T17:35:01.113Z,144.98
2022-10-05T17:37:28.470Z,133.73
2022-10-05T17:39:59.210Z,144.63
2022-10-05T17:42:26.780Z,142.10
2022-10-05T17:45:12.559Z,136.45
2022-10-05T17:48:00.859Z,145.77
2022-10-05T17:51:07.563Z,168.75
2022-10-05T17:54:03.022Z,176.52
2022-10-05T17:56:34.021Z,167.25
2022-10-05T17:59:06.308Z,205.10
2022-10-05T18:01:35.355Z,198.52
2022-10-05T18:04:11.889Z,184.82
2022-10-05T18:07:01.231Z,183.68
2022-10-05T18:09:36.323Z,166.65
2022-10-05T18:12:21.492Z,166.45
2022-10-05T18:14:57.335Z,133.40
2022-10-05T18:17:41.452Z,171.88
2022-10-05T18:20:26.760Z,156.13
2022-10-05T18:23:24.063Z,149.80
2022-10-05T18:26:26.587Z,176.63
2022-10-05T18:29:14.206Z,166.68
2022-10-05T18:32:03.019Z,147.20
2022-10-05T18:34:38.493Z,153.57
2022-10-05T18:37:16.864Z,144.25
2022-10-05T18:40:00.943Z,135.80
2022-10-05T18:42:44.802Z,160.13
2022-10-05T18:45:40.077Z,158.07
2022-10-05T18:48:11.287Z,154.77
2022-10-05T18:50:56.349Z,132.57
2022-10-05T18:53:44.769Z,124.50
2022-10-05T18:56:24.642Z,133.10
2022-10-05T18:59:24.409Z,133.13
2022-10-05T19:02:07.491Z,142.05
2022-10-05T19:04:54.027Z,212.70
2022-10-05T19:07:48.437Z,303.80
2022-10-05T19:10:56.500Z,278.38
2022-10-05T19:13:50.908Z,242.32
2022-10-05T19:16:38.431Z,167.52
2022-10-05T19:19:32.394Z,169.20
2022-10-05T19:22:06.753Z,184.38
2022-10-05T19:24:43.727Z,170.48
2022-10-05T19:27:45.592Z,166.20
2022-10-05T19:30:18.351Z,177.20
2022-10-05T19:33:20.623Z,157.07
2022-10-05T19:36:10.866Z,132.00
2022-10-05T19:38:54.428Z,141.43
2022-10-05T19:41:29.558Z,144.75
2022-10-05T19:44:09.092Z,156.32
2022-10-05T19:46:54.648Z,167.35
2022-10-05T19:49:43.382Z,164.95
2022-10-05T19:52:50.022Z,159.02
2022-10-05T19:55:20.947Z,160.77
2022-10-05T19:57:54.023Z,142.90
2022-10-05T20:00:27.500Z,144.95
2022-10-05T20:03:27.771Z,146.85
2022-10-05T20:05:57.900Z,150.77
2022-10-05T20:08:31.998Z,149.73
2022-10-05T20:11:11.978Z,155.23
2022-10-05T20:14:01.279Z,159.15
2022-10-05T20:16:49.961Z,155.85
2022-10-05T20:19:46.632Z,159.93
2022-10-05T20:24:56.817Z,151.38
2022-10-05T20:27:47.810Z,160.05
2022-10-05T20:30:22.798Z,185.52
2022-10-05T20:32:51.593Z,199.32
2022-10-05T20:35:23.209Z,220.90
2022-10-05T20:38:09.401Z,280.50
2022-10-05T20:40:36.777Z,183.23
2022-10-05T20:43:04.400Z,193.50
2022-10-05T20:45:31.799Z,178.82
2022-10-05T20:47:59.360Z,145.88
2022-10-05T20:50:27.850Z,137.63
2022-10-05T20:52:55.199Z,133.73
2022-10-05T20:55:23.230Z,160.13
2022-10-05T20:57:50.662Z,166.23
2022-10-05T21:00:18.241Z,157.85
2022-10-05T21:02:46.961Z,223.85
2022-10-05T21:05:14.465Z,163.18
2022-10-05T21:07:41.760Z,159.50
2022-10-05T21:10:09.779Z,135.40
2022-10-05T21:12:37.590Z,154.90
2022-10-05T21:15:05.477Z,121.88
2022-10-05T21:17:35.400Z,123.60
2022-10-05T21:20:06.470Z,106.75
2022-10-05T21:22:36.511Z,100.68
2022-10-05T21:25:04.139Z,123.00
2022-10-05T21:27:31.409Z,115.28
2022-10-05T21:29:59.017Z,113.45
2022-10-05T21:32:26.260Z,118.53
2022-10-05T21:34:54.525Z,124.70
2022-10-05T21:37:22.626Z,127.75
2022-10-05T21:39:50.072Z,111.82
2022-10-05T21:42:17.429Z,98.45
2022-10-05T21:44:45.020Z,114.78
2022-10-05T21:47:12.899Z,103.40
2022-10-05T21:49:41.909Z,127.07
2022-10-05T21:52:10.288Z,88.43
2022-10-05T21:54:37.920Z,85.72
2022-10-05T21:57:05.280Z,100.47
2022-10-05T21:59:34.600Z,102.95
2022-10-05T22:02:02.590Z,103.45
2022-10-05T22:04:30.101Z,103.10
2022-10-05T22:06:58.072Z,113.43
2022-10-05T22:09:25.377Z,94.70
2022-10-05T22:11:52.671Z,109.38
2022-10-05T22:14:21.400Z,112.22
2022-10-05T22:16:49.200Z,98.65
2022-10-05T22:19:19.688Z,106.00
2022-10-05T22:21:47.948Z,107.60
2022-10-05T22:24:15.179Z,110.10
2022-10-05T22:26:46.268Z,124.60
2022-10-05T22:29:16.868Z,128.93
2022-10-05T22:31:48.971Z,123.53
2022-10-05T22:34:24.771Z,115.10
2022-10-05T22:36:52.125Z,104.80
2022-10-05T22:39:19.667Z,109.75
2022-10-05T22:41:47.019Z,123.60
2022-10-05T22:44:14.754Z,121.63
2022-10-05T22:46:42.457Z,123.20
2022-10-05T22:49:09.756Z,122.38
2022-10-05T22:51:36.948Z,130.63
2022-10-05T22:54:04.922Z,130.48
2022-10-05T22:56:34.829Z,119.30
2022-10-05T22:59:01.949Z,178.25
2022-10-05T23:01:29.446Z,141.90
2022-10-05T23:03:57.513Z,133.77
2022-10-05T23:06:26.767Z,112.85
2022-10-05T23:08:55.354Z,119.82
2022-10-05T23:11:26.058Z,122.18
2022-10-05T23:13:55.911Z,115.32
2022-10-05T23:16:25.483Z,121.43
2022-10-05T23:18:56.525Z,123.45
2022-10-05T23:21:27.303Z,135.38
2022-10-05T23:23:55.093Z,121.30
2022-10-05T23:26:24.748Z,132.18
2022-10-05T23:28:52.642Z,118.15
2022-10-05T23:31:24.739Z,122.72
2022-10-05T23:33:53.114Z,121.18
2022-10-05T23:36:23.242Z,122.55
2022-10-05T23:38:50.817Z,120.90
2022-10-05T23:41:19.933Z,118.72
2022-10-05T23:43:47.547Z,121.43
2022-10-05T23:46:15.554Z,114.35
2022-10-05T23:48:42.818Z,119.18
2022-10-05T23:51:12.680Z,118.60
2022-10-05T23:53:40.428Z,119.18
2022-10-05T23:56:07.721Z,108.95
2022-10-05T23:58:35.225Z,115.93
